createdAt,value
2022-09-21T00:01:27.557Z,3.58
2022-09-21T00:04:00.859Z,3.45
2022-09-21T00:06:30.080Z,4.05
2022-09-21T00:08:57.521Z,3.70
2022-09-21T00:11:30.627Z,3.67
2022-09-21T00:16:34.464Z,3.78
2022-09-21T00:19:01.440Z,3.65
2022-09-21T00:21:28.803Z,4.90
2022-09-21T00:23:55.963Z,4.13
2022-09-21T00:26:25.698Z,4.05
2022-09-21T00:28:58.471Z,4.07
2022-09-21T00:31:26.949Z,4.55
2022-09-21T00:33:54.452Z,5.20
2022-09-21T00:36:24.359Z,5.22
2022-09-21T00:39:02.185Z,4.68
2022-09-21T00:41:32.655Z,4.25
2022-09-21T00:44:28.037Z,4.65
2022-09-21T00:47:02.028Z,5.57
2022-09-21T00:49:29.343Z,5.00
2022-09-21T00:51:58.224Z,4.68
2022-09-21T00:54:37.127Z,4.95
2022-09-21T00:57:04.413Z,3.95
2022-09-21T00:59:34.524Z,4.55
2022-09-21T01:02:01.554Z,4.90
2022-09-21T01:04:29.077Z,4.80
2022-09-21T01:06:59.007Z,4.57
2022-09-21T01:09:26.616Z,4.40
2022-09-21T01:12:39.026Z,4.85
2022-09-21T01:15:24.611Z,4.18
2022-09-21T01:18:08.444Z,5.10
2022-09-21T01:20:48.033Z,4.63
2022-09-21T01:23:54.361Z,5.20
2022-09-21T01:27:07.055Z,5.18
2022-09-21T01:29:44.850Z,5.80
2022-09-21T01:32:33.480Z,7.05
2022-09-21T01:35:19.938Z,7.68
2022-09-21T01:37:59.645Z,6.20
2022-09-21T01:40:35.957Z,4.82
2022-09-21T01:43:06.310Z,5.90
2022-09-21T01:45:40.904Z,4.90
2022-09-21T01:48:08.694Z,4.80
2022-09-21T01:50:45.934Z,4.63
2022-09-21T01:53:26.474Z,4.20
2022-09-21T01:55:58.993Z,3.80
2022-09-21T01:58:46.723Z,2.63
2022-09-21T02:01:18.378Z,3.67
2022-09-21T02:03:55.267Z,3.03
2022-09-21T02:06:22.254Z,3.50
2022-09-21T02:08:49.100Z,4.13
2022-09-21T02:11:15.851Z,3.90
2022-09-21T02:13:48.847Z,4.50
2022-09-21T02:19:37.316Z,3.75
2022-09-21T02:22:07.069Z,4.07
2022-09-21T02:24:41.255Z,4.50
2022-09-21T02:27:39.414Z,3.95
2022-09-21T02:30:21.936Z,3.53
2022-09-21T02:33:15.010Z,3.80
2022-09-21T02:36:04.893Z,3.90
2022-09-21T02:38:45.017Z,3.88
2022-09-21T02:41:45.185Z,3.67
2022-09-21T02:44:20.303Z,3.60
2022-09-21T02:46:55.328Z,3.38
2022-09-21T02:49:32.357Z,3.38
2022-09-21T02:52:05.301Z,3.70
2022-09-21T02:54:34.183Z,3.85
2022-09-21T02:57:02.446Z,3.60
2022-09-21T02:59:29.359Z,4.10
2022-09-21T03:01:56.269Z,4.88
2022-09-21T03:04:23.771Z,4.72
2022-09-21T03:06:50.519Z,4.22
2022-09-21T03:09:17.330Z,4.07
2022-09-21T03:11:44.106Z,4.97
2022-09-21T03:14:10.970Z,4.32
2022-09-21T03:16:38.941Z,3.28
2022-09-21T03:19:06.268Z,3.53
2022-09-21T03:21:33.063Z,3.33
2022-09-21T03:23:59.793Z,3.90
2022-09-21T03:26:26.591Z,4.20
2022-09-21T03:28:56.037Z,3.20
2022-09-21T03:31:22.918Z,5.15
2022-09-21T03:33:49.890Z,3.40
2022-09-21T03:36:17.028Z,3.67
2022-09-21T03:38:44.262Z,3.25
2022-09-21T03:41:11.000Z,4.07
2022-09-21T03:43:37.796Z,3.20
2022-09-21T03:46:04.788Z,3.40
2022-09-21T03:48:32.626Z,3.20
2022-09-21T03:50:59.413Z,3.08
2022-09-21T03:53:26.361Z,4.00
2022-09-21T03:55:53.164Z,3.13
2022-09-21T03:58:20.045Z,3.88
2022-09-21T04:00:46.843Z,3.78
2022-09-21T04:03:13.597Z,3.75
2022-09-21T04:05:40.386Z,3.72
2022-09-21T04:08:07.345Z,3.53
2022-09-21T04:10:34.135Z,3.50
2022-09-21T04:13:02.028Z,3.50
2022-09-21T04:15:29.504Z,3.53
2022-09-21T04:17:57.250Z,3.20
2022-09-21T04:20:24.141Z,2.92
2022-09-21T04:22:51.766Z,3.33
2022-09-21T04:25:18.949Z,3.15
2022-09-21T04:27:45.831Z,3.25
2022-09-21T04:30:15.538Z,2.72
2022-09-21T04:32:42.368Z,3.42
2022-09-21T04:35:09.402Z,3.58
2022-09-21T04:37:36.362Z,2.90
2022-09-21T04:40:05.498Z,3.10
2022-09-21T04:42:32.334Z,2.97
2022-09-21T04:44:59.058Z,3.35
2022-09-21T04:47:26.016Z,3.80
2022-09-21T04:49:53.493Z,3.88
2022-09-21T04:52:20.388Z,3.80
2022-09-21T04:54:47.947Z,3.22
2022-09-21T04:57:15.614Z,4.40
2022-09-21T05:02:14.722Z,2.90
2022-09-21T05:04:41.524Z,3.28
2022-09-21T05:07:08.384Z,3.30
2022-09-21T05:09:53.456Z,3.25
2022-09-21T05:12:20.245Z,2.90
2022-09-21T05:14:47.147Z,3.05
2022-09-21T05:17:13.910Z,2.90
2022-09-21T05:19:41.194Z,3.00
2022-09-21T05:22:08.556Z,3.20
2022-09-21T05:24:35.584Z,2.78
2022-09-21T05:27:02.414Z,4.28
2022-09-21T05:29:29.754Z,3.78
2022-09-21T05:32:12.310Z,3.88
2022-09-21T05:34:50.228Z,2.75
2022-09-21T05:37:39.111Z,3.30
2022-09-21T05:40:07.633Z,3.28
2022-09-21T05:42:34.841Z,3.20
2022-09-21T05:45:02.336Z,3.70
2022-09-21T05:47:53.827Z,3.20
2022-09-21T05:50:38.597Z,2.60
2022-09-21T05:54:08.212Z,3.53
2022-09-21T05:56:58.394Z,2.92
2022-09-21T05:59:46.121Z,2.70
2022-09-21T06:02:41.698Z,3.05
2022-09-21T06:05:14.520Z,3.72
2022-09-21T06:07:43.998Z,2.78
2022-09-21T06:10:13.612Z,2.90
2022-09-21T06:12:41.036Z,3.05
2022-09-21T06:15:12.303Z,2.60
2022-09-21T06:17:39.339Z,2.60
2022-09-21T06:20:07.687Z,2.70
2022-09-21T06:22:35.245Z,2.85
2022-09-21T06:25:02.174Z,3.00
2022-09-21T06:27:29.811Z,2.90
2022-09-21T06:29:56.721Z,3.00
2022-09-21T06:32:23.535Z,3.00
2022-09-21T06:34:50.471Z,2.80
2022-09-21T06:37:17.343Z,3.55
2022-09-21T06:39:44.179Z,3.15
2022-09-21T06:42:10.934Z,3.00
2022-09-21T06:44:37.705Z,2.70
2022-09-21T06:47:04.776Z,2.47
2022-09-21T06:49:31.905Z,2.78
2022-09-21T06:51:58.814Z,3.20
2022-09-21T06:54:25.821Z,3.83
2022-09-21T06:56:54.894Z,3.22
2022-09-21T06:59:25.287Z,2.60
2022-09-21T07:01:52.389Z,5.82
2022-09-21T07:04:25.018Z,6.15
2022-09-21T07:06:52.074Z,2.95
2022-09-21T07:12:07.894Z,3.67
2022-09-21T07:14:34.686Z,4.78
2022-09-21T07:17:02.273Z,5.40
2022-09-21T07:19:29.077Z,3.50
2022-09-21T07:21:56.070Z,3.70
2022-09-21T07:24:23.008Z,3.00
2022-09-21T07:26:49.879Z,2.83
2022-09-21T07:29:16.643Z,3.20
2022-09-21T07:31:48.080Z,3.20
2022-09-21T07:34:14.932Z,3.25
2022-09-21T07:36:42.308Z,3.13
2022-09-21T07:39:10.747Z,3.65
2022-09-21T07:41:37.624Z,3.80
2022-09-21T07:44:04.816Z,5.15
2022-09-21T07:46:31.620Z,4.30
2022-09-21T07:48:58.482Z,3.58
2022-09-21T07:51:25.555Z,3.30
2022-09-21T07:53:59.335Z,3.80
2022-09-21T07:56:26.567Z,3.60
2022-09-21T07:59:08.317Z,3.42
2022-09-21T08:01:39.043Z,3.50
2022-09-21T08:04:11.069Z,3.90
2022-09-21T08:06:40.037Z,3.30
2022-09-21T08:09:08.465Z,4.20
2022-09-21T08:11:37.285Z,5.10
2022-09-21T08:14:04.974Z,4.25
2022-09-21T08:16:33.894Z,4.15
2022-09-21T08:19:02.130Z,3.65
2022-09-21T08:21:28.947Z,4.57
2022-09-21T08:23:55.818Z,4.15
2022-09-21T08:26:23.808Z,4.35
2022-09-21T08:28:53.330Z,4.00
2022-09-21T08:31:23.028Z,4.10
2022-09-21T08:33:51.074Z,4.10
2022-09-21T08:36:19.555Z,4.45
2022-09-21T08:38:48.066Z,4.40
2022-09-21T08:41:22.685Z,4.50
2022-09-21T08:44:07.561Z,6.40
2022-09-21T08:46:35.600Z,5.50
2022-09-21T08:49:25.393Z,6.10
2022-09-21T08:52:02.312Z,7.38
2022-09-21T08:54:51.707Z,6.82
2022-09-21T08:57:19.994Z,6.50
2022-09-21T08:59:49.399Z,4.78
2022-09-21T09:02:37.735Z,5.35
2022-09-21T09:05:45.781Z,5.28
2022-09-21T09:08:33.950Z,4.65
2022-09-21T09:11:17.736Z,5.15
2022-09-21T09:14:07.813Z,5.40
2022-09-21T09:17:31.698Z,4.53
2022-09-21T09:20:31.403Z,4.63
2022-09-21T09:23:41.896Z,4.50
2022-09-21T09:26:21.768Z,4.40
2022-09-21T09:28:59.451Z,4.53
2022-09-21T09:31:33.473Z,4.70
2022-09-21T09:34:09.309Z,4.50
2022-09-21T09:36:57.844Z,4.40
2022-09-21T09:39:28.041Z,4.32
2022-09-21T09:42:37.368Z,5.05
2022-09-21T09:45:22.792Z,4.70
2022-09-21T09:47:59.612Z,4.32
2022-09-21T09:50:35.767Z,4.35
2022-09-21T09:53:16.064Z,4.90
2022-09-21T09:55:48.874Z,4.80
2022-09-21T09:58:21.413Z,4.60
2022-09-21T10:00:53.354Z,5.00
2022-09-21T10:03:25.941Z,4.88
2022-09-21T10:05:54.022Z,5.18
2022-09-21T10:08:42.171Z,5.43
2022-09-21T10:11:11.349Z,5.38
2022-09-21T10:13:48.029Z,5.38
2022-09-21T10:16:23.097Z,6.13
2022-09-21T10:18:58.888Z,6.07
2022-09-21T10:21:37.088Z,5.90
2022-09-21T10:24:26.863Z,6.07
2022-09-21T10:27:02.175Z,5.70
2022-09-21T10:29:46.940Z,5.45
2022-09-21T10:32:14.762Z,5.55
2022-09-21T10:35:03.532Z,5.22
2022-09-21T10:37:42.640Z,5.78
2022-09-21T10:40:21.777Z,5.90
2022-09-21T10:42:51.716Z,5.40
2022-09-21T10:45:28.116Z,4.38
2022-09-21T10:48:06.560Z,3.95
2022-09-21T10:50:51.681Z,4.03
2022-09-21T10:53:36.763Z,3.25
2022-09-21T10:56:23.191Z,2.80
2022-09-21T10:59:30.733Z,2.97
2022-09-21T11:02:00.302Z,2.35
2022-09-21T11:04:46.638Z,2.25
2022-09-21T11:07:43.756Z,2.58
2022-09-21T11:10:28.828Z,1.67
2022-09-21T11:13:16.888Z,1.90
2022-09-21T11:16:02.388Z,1.73
2022-09-21T11:18:56.925Z,2.30
2022-09-21T11:22:08.070Z,1.98
2022-09-21T11:25:15.134Z,1.10
2022-09-21T11:27:49.205Z,1.38
2022-09-21T11:30:18.875Z,1.33
2022-09-21T11:33:15.342Z,1.80
2022-09-21T11:35:48.893Z,3.47
2022-09-21T11:38:52.461Z,1.88
2022-09-21T11:41:41.251Z,1.30
2022-09-21T11:44:41.985Z,1.23
2022-09-21T11:47:20.557Z,1.23
2022-09-21T11:50:30.510Z,1.38
2022-09-21T11:53:49.831Z,1.92
2022-09-21T11:56:34.501Z,1.65
2022-09-21T11:59:29.857Z,1.50
2022-09-21T12:02:24.144Z,1.30
2022-09-21T12:05:39.583Z,1.30
2022-09-21T12:08:51.355Z,1.17
2022-09-21T12:11:24.675Z,1.23
2022-09-21T12:14:29.425Z,1.08
2022-09-21T12:17:15.632Z,1.10
2022-09-21T12:20:07.069Z,1.00
2022-09-21T12:22:42.498Z,1.42
2022-09-21T12:25:25.487Z,1.30
2022-09-21T12:28:08.210Z,1.25
2022-09-21T12:30:38.427Z,1.30
2022-09-21T12:33:31.475Z,0.88
2022-09-21T12:37:04.371Z,1.73
2022-09-21T12:40:07.198Z,1.20
2022-09-21T12:42:55.781Z,1.20
2022-09-21T12:45:36.552Z,1.38
2022-09-21T12:48:14.156Z,1.00
2022-09-21T12:50:48.503Z,1.80
2022-09-21T12:53:20.091Z,2.30
2022-09-21T12:56:23.041Z,3.63
2022-09-21T12:59:46.549Z,1.20
2022-09-21T13:02:24.602Z,1.00
2022-09-21T13:05:36.666Z,1.05
2022-09-21T13:08:14.090Z,1.15
2022-09-21T13:10:55.744Z,1.02
2022-09-21T13:13:45.723Z,1.30
2022-09-21T13:16:30.525Z,1.10
2022-09-21T13:19:05.630Z,1.20
2022-09-21T13:21:33.533Z,0.90
2022-09-21T13:24:07.672Z,1.20
2022-09-21T13:26:43.079Z,0.90
2022-09-21T13:29:19.015Z,1.30
2022-09-21T13:32:11.627Z,1.00
2022-09-21T13:34:43.531Z,0.82
2022-09-21T13:37:19.452Z,1.05
2022-09-21T13:39:55.646Z,1.10
2022-09-21T13:42:47.883Z,0.70
2022-09-21T13:45:21.294Z,0.70
2022-09-21T13:47:55.444Z,1.20
2022-09-21T13:50:43.451Z,1.33
2022-09-21T13:53:25.580Z,1.10
2022-09-21T13:55:56.821Z,0.95
2022-09-21T13:58:43.870Z,1.10
2022-09-21T14:01:45.703Z,1.38
2022-09-21T14:04:27.528Z,1.30
2022-09-21T14:06:55.894Z,1.45
2022-09-21T14:09:29.013Z,1.13
2022-09-21T14:12:02.411Z,1.38
2022-09-21T14:14:39.936Z,1.40
2022-09-21T14:17:40.426Z,1.20
2022-09-21T14:20:31.312Z,1.10
2022-09-21T14:23:14.847Z,1.50
2022-09-21T14:25:52.203Z,1.90
2022-09-21T14:28:35.131Z,1.40
2022-09-21T14:31:14.569Z,1.90
2022-09-21T14:33:44.232Z,1.98
2022-09-21T14:36:21.316Z,2.00
2022-09-21T14:38:58.308Z,2.65
2022-09-21T14:41:34.458Z,2.63
2022-09-21T14:44:01.876Z,2.22
2022-09-21T14:46:45.214Z,2.00
2022-09-21T14:49:57.410Z,1.60
2022-09-21T14:53:07.933Z,1.80
2022-09-21T14:56:02.377Z,2.15
2022-09-21T14:58:54.672Z,2.03
2022-09-21T15:01:37.789Z,2.17
2022-09-21T15:04:46.256Z,1.90
2022-09-21T15:07:56.858Z,0.80
2022-09-21T15:10:55.464Z,1.15
2022-09-21T15:14:18.755Z,1.60
2022-09-21T15:19:23.840Z,1.80
2022-09-21T15:22:12.413Z,1.35
2022-09-21T15:24:50.955Z,3.03
2022-09-21T15:27:20.469Z,4.07
2022-09-21T15:29:54.883Z,1.98
2022-09-21T15:32:34.445Z,1.10
2022-09-21T15:35:09.464Z,2.15
2022-09-21T15:37:39.417Z,2.58
2022-09-21T15:40:20.589Z,2.10
2022-09-21T15:43:16.792Z,8.10
2022-09-21T15:45:52.157Z,12.13
2022-09-21T15:48:19.804Z,3.22
2022-09-21T15:50:54.322Z,1.80
2022-09-21T15:53:37.009Z,1.70
2022-09-21T15:56:03.906Z,3.00
2022-09-21T15:58:37.101Z,1.90
2022-09-21T16:01:11.529Z,2.10
2022-09-21T16:03:39.980Z,1.90
2022-09-21T16:06:21.745Z,2.25
2022-09-21T16:08:48.783Z,1.83
2022-09-21T16:11:26.879Z,2.15
2022-09-21T16:14:31.046Z,2.15
2022-09-21T16:17:11.409Z,2.53
2022-09-21T16:20:08.934Z,2.60
2022-09-21T16:22:44.995Z,3.17
2022-09-21T16:25:29.916Z,3.13
2022-09-21T16:28:05.286Z,3.70
2022-09-21T16:30:51.073Z,3.47
2022-09-21T16:33:38.295Z,3.88
2022-09-21T16:36:26.153Z,3.75
2022-09-21T16:38:54.508Z,6.25
2022-09-21T16:41:33.534Z,9.82
2022-09-21T16:44:01.688Z,12.77
2022-09-21T16:46:28.874Z,38.67
2022-09-21T16:48:55.882Z,18.35
2022-09-21T16:51:25.147Z,9.38
2022-09-21T16:53:52.550Z,6.93
2022-09-21T16:56:21.190Z,7.60
2022-09-21T16:58:49.450Z,5.53
2022-09-21T17:01:20.678Z,2.88
2022-09-21T17:03:48.491Z,3.35
2022-09-21T17:06:19.557Z,2.50
2022-09-21T17:08:48.202Z,2.67
2022-09-21T17:11:22.603Z,2.72
2022-09-21T17:13:52.072Z,2.00
2022-09-21T17:16:20.404Z,2.60
2022-09-21T17:18:48.898Z,2.88
2022-09-21T17:21:16.724Z,2.40
2022-09-21T17:23:43.710Z,2.83
2022-09-21T17:26:18.110Z,2.35
2022-09-21T17:28:45.544Z,2.28
2022-09-21T17:31:16.359Z,2.40
2022-09-21T17:33:45.719Z,1.65
2022-09-21T17:36:16.589Z,1.52
2022-09-21T17:38:44.059Z,1.60
2022-09-21T17:41:38.556Z,1.58
2022-09-21T17:44:24.325Z,1.52
2022-09-21T17:47:01.361Z,2.45
2022-09-21T17:49:28.539Z,2.00
2022-09-21T17:52:14.422Z,2.65
2022-09-21T17:54:41.588Z,2.50
2022-09-21T17:57:49.808Z,2.50
2022-09-21T18:00:24.071Z,2.17
2022-09-21T18:02:52.650Z,1.95
2022-09-21T18:05:27.502Z,1.77
2022-09-21T18:07:56.442Z,1.60
2022-09-21T18:10:26.163Z,2.20
2022-09-21T18:13:34.677Z,2.03
2022-09-21T18:16:24.111Z,2.10
2022-09-21T18:19:12.731Z,2.03
2022-09-21T18:21:43.887Z,3.13
2022-09-21T18:24:28.688Z,2.58
2022-09-21T18:26:58.909Z,2.83
2022-09-21T18:29:41.149Z,4.25
2022-09-21T18:32:23.435Z,5.22
2022-09-21T18:35:27.124Z,5.53
2022-09-21T18:38:36.262Z,3.67
2022-09-21T18:41:34.260Z,3.35
2022-09-21T18:45:23.275Z,2.80
2022-09-21T18:48:23.854Z,3.13
2022-09-21T18:51:38.111Z,3.05
2022-09-21T18:54:06.058Z,3.00
2022-09-21T18:56:36.973Z,5.13
2022-09-21T18:59:07.588Z,9.55
2022-09-21T19:01:35.054Z,5.30
2022-09-21T19:04:02.554Z,4.82
2022-09-21T19:06:41.120Z,4.07
2022-09-21T19:09:36.421Z,3.85
2022-09-21T19:12:23.830Z,3.08
2022-09-21T19:15:12.648Z,3.20
2022-09-21T19:18:12.342Z,2.85
2022-09-21T19:21:13.410Z,3.75
2022-09-21T19:24:37.139Z,2.75
2022-09-21T19:27:29.082Z,2.08
2022-09-21T19:30:15.962Z,2.53
2022-09-21T19:33:03.042Z,2.75
2022-09-21T19:35:39.806Z,2.53
2022-09-21T19:38:10.138Z,2.50
2022-09-21T19:40:40.264Z,2.60
2022-09-21T19:43:54.050Z,3.53
2022-09-21T19:46:38.976Z,3.17
2022-09-21T19:49:18.431Z,3.13
2022-09-21T19:51:51.116Z,4.28
2022-09-21T19:54:42.959Z,4.88
2022-09-21T19:57:40.291Z,3.67
2022-09-21T20:00:12.791Z,3.05
2022-09-21T20:03:06.069Z,2.88
2022-09-21T20:05:45.627Z,3.30
2022-09-21T20:08:40.532Z,3.08
2022-09-21T20:11:51.678Z,3.10
2022-09-21T20:14:47.444Z,3.45
2022-09-21T20:17:22.151Z,3.30
2022-09-21T20:20:26.296Z,2.58
2022-09-21T20:22:54.524Z,2.92
2022-09-21T20:25:25.297Z,3.00
2022-09-21T20:27:56.852Z,2.83
2022-09-21T20:30:35.033Z,2.95
2022-09-21T20:33:10.765Z,3.15
2022-09-21T20:35:37.572Z,2.97
2022-09-21T20:38:04.589Z,3.40
2022-09-21T20:40:32.255Z,3.17
2022-09-21T20:43:00.833Z,3.30
2022-09-21T20:45:28.445Z,3.10
2022-09-21T20:47:57.238Z,3.28
2022-09-21T20:50:30.276Z,3.05
2022-09-21T20:55:24.242Z,3.15
2022-09-21T20:57:51.050Z,2.95
2022-09-21T21:00:19.352Z,3.35
2022-09-21T21:02:46.136Z,2.53
2022-09-21T21:05:12.943Z,2.72
2022-09-21T21:07:43.358Z,2.58
2022-09-21T21:10:14.155Z,4.15
2022-09-21T21:12:44.571Z,3.53
2022-09-21T21:15:12.590Z,3.63
2022-09-21T21:17:40.795Z,2.90
2022-09-21T21:20:08.796Z,2.90
2022-09-21T21:22:36.474Z,3.28
2022-09-21T21:25:04.423Z,2.67
2022-09-21T21:27:31.435Z,3.20
2022-09-21T21:29:58.471Z,2.67
2022-09-21T21:32:26.642Z,3.05
2022-09-21T21:34:55.151Z,2.60
2022-09-21T21:37:27.423Z,3.05
2022-09-21T21:39:56.075Z,3.10
2022-09-21T21:42:24.769Z,2.83
2022-09-21T21:44:52.186Z,3.17
2022-09-21T21:50:06.657Z,2.40
2022-09-21T21:52:34.300Z,2.88
2022-09-21T21:55:01.781Z,2.40
2022-09-21T21:57:28.559Z,2.67
2022-09-21T21:59:55.358Z,2.55
2022-09-21T22:02:22.287Z,2.88
2022-09-21T22:04:49.143Z,3.78
2022-09-21T22:07:15.952Z,4.00
2022-09-21T22:09:42.707Z,4.38
2022-09-21T22:12:10.868Z,3.30
2022-09-21T22:14:37.734Z,4.10
2022-09-21T22:17:04.679Z,3.70
2022-09-21T22:19:32.919Z,3.33
2022-09-21T22:21:59.705Z,3.28
2022-09-21T22:24:26.685Z,3.30
2022-09-21T22:26:53.502Z,2.90
2022-09-21T22:29:20.279Z,2.88
2022-09-21T22:31:49.647Z,3.10
2022-09-21T22:34:17.327Z,2.97
2022-09-21T22:36:44.976Z,2.60
2022-09-21T22:39:12.146Z,2.90
2022-09-21T22:41:41.659Z,2.55
2022-09-21T22:44:10.046Z,2.83
2022-09-21T22:46:37.920Z,2.50
2022-09-21T22:49:05.205Z,2.67
2022-09-21T22:51:32.469Z,2.28
2022-09-21T22:54:01.099Z,2.70
2022-09-21T22:56:33.028Z,2.40
2022-09-21T22:59:03.347Z,2.45
2022-09-21T23:01:39.098Z,3.17
2022-09-21T23:04:10.096Z,2.70
2022-09-21T23:06:41.279Z,3.28
2022-09-21T23:09:15.498Z,3.15
2022-09-21T23:11:47.157Z,3.78
2022-09-21T23:14:16.151Z,3.70
2022-09-21T23:16:43.325Z,5.15
2022-09-21T23:19:15.545Z,5.00
2022-09-21T23:21:46.031Z,5.50
2022-09-21T23:24:13.184Z,5.38
2022-09-21T23:26:40.382Z,4.90
2022-09-21T23:29:12.573Z,5.57
2022-09-21T23:31:44.515Z,3.47
2022-09-21T23:34:14.824Z,4.68
2022-09-21T23:36:43.045Z,4.93
2022-09-21T23:39:12.907Z,4.38
2022-09-21T23:41:39.917Z,4.05
2022-09-21T23:44:07.346Z,5.13
2022-09-21T23:46:37.124Z,4.97
2022-09-21T23:49:04.047Z,5.53
2022-09-21T23:51:30.976Z,4.78
2022-09-21T23:53:58.546Z,4.70
2022-09-21T23:56:25.656Z,4.63
2022-09-21T23:58:53.037Z,5.40
